Time;durP1;ratioP1;P1;durP2;ratioP2;P2;SDS_P1;SDS_P2;PMS_P1;PMS_P2;Temp;Humidity;BMP_temperature;BMP_pressure;BME280_temperature;BME280_humidity;BME280_pressure;Samples;Min_cycle;Max_cycle;Signal;HPM_P1;HPM_P2
2022/07/24 00:01:36;;;;;;;11.68;8.85;;;;;;;25.80;58.13;100131.66;5073936;28;20127;-73
2022/07/24 00:04:05;;;;;;;9.88;8.63;;;;;;;25.96;57.62;100142.31;5072446;28;20097;-74
2022/07/24 00:06:34;;;;;;;10.30;8.07;;;;;;;26.01;57.65;100137.13;5072469;28;20413;-74
2022/07/24 00:09:02;;;;;;;10.45;8.27;;;;;;;26.14;56.53;100130.94;5073430;28;20071;-74
2022/07/24 00:11:30;;;;;;;13.20;8.27;;;;;;;26.16;57.01;100132.44;5073846;28;20037;-74
2022/07/24 00:13:59;;;;;;;11.65;8.07;;;;;;;26.32;55.85;100130.47;5071961;28;20131;-74
2022/07/24 00:16:27;;;;;;;10.57;8.13;;;;;;;26.31;55.94;100136.97;5073644;28;20119;-74
2022/07/24 00:18:57;;;;;;;15.00;9.07;;;;;;;26.33;55.49;100140.34;5073260;28;20041;-74
2022/07/24 00:21:25;;;;;;;11.93;8.10;;;;;;;26.28;56.97;100153.78;5073410;28;20131;-74
2022/07/24 00:23:54;;;;;;;10.65;8.30;;;;;;;26.24;56.50;100147.84;5073078;28;20044;-73
2022/07/24 00:26:22;;;;;;;11.30;8.63;;;;;;;26.48;55.54;100149.38;5071800;28;20127;-74
2022/07/24 00:28:50;;;;;;;12.20;9.25;;;;;;;26.32;55.67;100149.59;5073188;28;20396;-74
2022/07/24 00:31:18;;;;;;;10.93;8.68;;;;;;;26.25;55.42;100144.94;5072425;28;20135;-74
2022/07/24 00:33:48;;;;;;;10.93;8.40;;;;;;;26.30;55.46;100148.97;5073240;28;20044;-74
2022/07/24 00:36:18;;;;;;;11.50;8.00;;;;;;;26.41;55.03;100153.94;5073317;28;20049;-73
2022/07/24 00:38:46;;;;;;;10.52;8.18;;;;;;;26.37;55.35;100147.13;5072986;28;20047;-74
2022/07/24 00:41:15;;;;;;;10.80;8.32;;;;;;;26.53;54.41;100157.81;5073194;28;20052;-74
2022/07/24 00:44:05;;;;;;;10.15;7.90;;;;;;;26.34;55.65;100163.91;5072813;28;20523;-74
2022/07/24 00:46:33;;;;;;;8.80;7.90;;;;;;;26.39;54.78;100158.75;5073221;28;20486;-73
2022/07/24 00:49:03;;;;;;;11.02;7.57;;;;;;;26.45;54.88;100166.19;5072729;28;20041;-73
2022/07/24 00:51:34;;;;;;;9.50;7.55;;;;;;;26.36;55.21;100170.91;5073277;28;20040;-74
2022/07/24 00:54:04;;;;;;;9.85;7.85;;;;;;;26.26;55.90;100156.72;5072792;28;20055;-74
2022/07/24 00:56:33;;;;;;;12.20;7.78;;;;;;;26.12;56.36;100154.88;5073151;28;20040;-74
2022/07/24 00:59:02;;;;;;;10.60;8.10;;;;;;;26.14;56.49;100159.09;5071654;28;20370;-74
2022/07/24 01:01:31;;;;;;;10.52;8.32;;;;;;;26.22;56.68;100169.06;5073103;28;20435;-74
2022/07/24 01:04:01;;;;;;;11.65;8.27;;;;;;;26.14;56.72;100170.03;5073788;28;20464;-72
2022/07/24 01:06:29;;;;;;;12.02;8.27;;;;;;;26.02;57.27;100160.69;5077308;28;20511;-72
2022/07/24 01:08:59;;;;;;;10.30;7.78;;;;;;;26.16;56.59;100161.66;5076960;28;20417;-72
2022/07/24 01:11:29;;;;;;;11.15;7.82;;;;;;;26.13;56.29;100151.94;5077277;28;20106;-72
2022/07/24 01:13:57;;;;;;;10.38;7.65;;;;;;;26.13;56.48;100157.41;5076852;28;20378;-72
2022/07/24 01:16:26;;;;;;;9.82;7.70;;;;;;;26.05;56.73;100149.34;5077110;28;20044;-72
2022/07/24 01:18:54;;;;;;;14.25;7.80;;;;;;;26.04;56.71;100153.13;5075404;28;20486;-72
2022/07/24 01:21:25;;;;;;;9.43;8.20;;;;;;;26.10;56.68;100146.03;5075769;28;20462;-72
2022/07/24 01:23:53;;;;;;;9.77;7.93;;;;;;;26.02;56.90;100157.94;5076733;28;20094;-72
2022/07/24 01:26:21;;;;;;;10.90;7.45;;;;;;;25.98;56.59;100153.06;5076784;28;20121;-71
2022/07/24 01:28:49;;;;;;;9.25;7.75;;;;;;;25.92;57.04;100157.41;5076572;28;20040;-72
2022/07/24 01:31:17;;;;;;;11.02;7.55;;;;;;;25.88;57.36;100153.41;5076594;28;20044;-72
2022/07/24 01:33:46;;;;;;;12.90;8.18;;;;;;;25.77;57.42;100156.59;5075429;28;20045;-72
2022/07/24 01:36:14;;;;;;;12.18;7.97;;;;;;;25.72;57.78;100159.94;5076440;28;20486;-71
2022/07/24 01:38:43;;;;;;;13.30;7.63;;;;;;;25.71;57.92;100160.97;5076373;28;20482;-72
2022/07/24 01:41:11;;;;;;;11.30;7.57;;;;;;;25.65;58.05;100170.75;5075204;28;20045;-72
2022/07/24 01:43:40;;;;;;;10.93;7.70;;;;;;;25.63;58.00;100159.16;5076453;28;20496;-72
2022/07/24 01:46:09;;;;;;;10.93;8.00;;;;;;;25.61;58.37;100163.97;5075912;28;20045;-72
2022/07/24 01:48:37;;;;;;;10.02;7.32;;;;;;;25.61;58.13;100146.75;5076472;28;20047;-71
2022/07/24 01:51:06;;;;;;;10.63;8.18;;;;;;;25.59;58.39;100155.13;5076191;28;20119;-72
2022/07/24 01:53:34;;;;;;;12.70;7.72;;;;;;;25.59;58.04;100155.13;5076223;28;20049;-71
2022/07/24 01:56:04;;;;;;;9.85;7.53;;;;;;;25.45;58.53;100146.97;5075917;28;20076;-71
2022/07/24 01:58:33;;;;;;;11.32;7.32;;;;;;;25.52;57.99;100136.97;5074749;28;20551;-74
2022/07/24 02:01:02;;;;;;;11.07;8.00;;;;;;;25.49;57.96;100132.75;5075871;28;20044;-74
2022/07/24 02:03:30;;;;;;;11.70;7.47;;;;;;;25.50;58.04;100142.63;5076120;28;20131;-71
2022/07/24 02:05:59;;;;;;;12.75;7.45;;;;;;;25.40;58.11;100145.66;5075697;28;20127;-71
2022/07/24 02:08:27;;;;;;;9.35;7.15;;;;;;;25.52;57.46;100147.91;5075947;28;20045;-71
2022/07/24 02:10:55;;;;;;;8.90;7.30;;;;;;;25.44;58.09;100151.56;5075807;28;20075;-71
2022/07/24 02:13:26;;;;;;;13.65;7.57;;;;;;;25.36;58.47;100165.31;5075859;28;20432;-73
2022/07/24 02:15:57;;;;;;;12.68;7.07;;;;;;;25.41;57.82;100160.16;5075466;28;20478;-73
2022/07/24 02:18:25;;;;;;;11.48;7.47;;;;;;;25.24;58.60;100172.31;5076006;28;20048;-71
2022/07/24 02:20:54;;;;;;;9.98;6.95;;;;;;;25.19;59.85;100163.84;5075377;28;20049;-72
2022/07/24 02:23:22;;;;;;;9.02;6.95;;;;;;;25.19;60.64;100169.28;5075511;28;20048;-71
2022/07/24 02:25:50;;;;;;;11.20;7.20;;;;;;;25.25;61.16;100157.63;5075366;28;20469;-72
2022/07/24 02:28:19;;;;;;;9.65;7.05;;;;;;;25.33;60.15;100154.81;5075589;28;20040;-77
2022/07/24 02:30:49;;;;;;;9.52;6.80;;;;;;;25.32;58.71;100155.84;5075182;28;20457;-78
2022/07/24 02:33:17;;;;;;;9.15;6.85;;;;;;;25.37;58.42;100150.63;5075408;28;20072;-78
2022/07/24 02:35:45;;;;;;;11.43;7.10;;;;;;;25.22;59.27;100141.63;5075825;28;20036;-78
2022/07/24 02:38:13;;;;;;;9.02;7.00;;;;;;;25.10;60.20;100139.41;5075325;28;20481;-74
2022/07/24 02:40:41;;;;;;;9.75;6.93;;;;;;;25.06;60.94;100143.53;5075746;28;20044;-74
2022/07/24 02:43:10;;;;;;;9.00;6.95;;;;;;;25.08;60.38;100146.91;5075072;28;20454;-75
2022/07/24 02:45:38;;;;;;;10.77;6.55;;;;;;;25.10;60.06;100139.41;5075395;28;20066;-75
2022/07/24 02:48:08;;;;;;;9.48;6.78;;;;;;;25.11;59.20;100134.78;5075034;28;20040;-74
2022/07/24 02:50:38;;;;;;;10.80;6.63;;;;;;;25.14;59.15;100133.53;5075055;28;20448;-74
2022/07/24 02:53:07;;;;;;;10.82;6.57;;;;;;;25.14;58.86;100128.09;5074937;28;20040;-74
2022/07/24 02:55:35;;;;;;;10.85;6.95;;;;;;;25.04;58.87;100129.22;5075280;28;20041;-74
2022/07/24 02:58:04;;;;;;;8.15;6.35;;;;;;;25.06;58.98;100129.88;5074853;28;20051;-74
2022/07/24 03:00:32;;;;;;;9.18;6.65;;;;;;;25.15;58.22;100118.88;5075058;28;20072;-73
2022/07/24 03:03:02;;;;;;;8.80;6.68;;;;;;;25.42;56.67;100098.22;5074729;28;20049;-73
2022/07/24 03:05:32;;;;;;;9.63;6.88;;;;;;;25.40;56.88;100101.97;5075076;28;20098;-72
2022/07/24 03:08:00;;;;;;;10.07;6.63;;;;;;;25.22;57.26;100109.72;5075948;28;20477;-72
2022/07/24 03:10:28;;;;;;;10.30;7.15;;;;;;;25.28;57.05;100113.56;5078755;28;20047;-73
2022/07/24 03:12:56;;;;;;;9.20;6.68;;;;;;;25.24;57.47;100118.56;5076428;28;20387;-73
2022/07/24 03:15:24;;;;;;;8.23;6.38;;;;;;;25.11;57.77;100118.41;5074852;28;20133;-73
2022/07/24 03:17:54;;;;;;;10.18;7.07;;;;;;;25.16;57.40;100109.63;5074544;28;20041;-72
2022/07/24 03:20:26;;;;;;;10.25;6.53;;;;;;;25.18;57.13;100113.84;5074674;28;20059;-73
2022/07/24 03:22:55;;;;;;;11.23;7.35;;;;;;;25.11;57.40;100108.34;5074465;28;20049;-75
2022/07/24 03:25:24;;;;;;;8.77;6.88;;;;;;;25.14;57.12;100114.44;5074588;28;20044;-73
2022/07/24 03:27:53;;;;;;;11.60;6.50;;;;;;;25.05;57.81;100122.72;5073473;28;20060;-75
2022/07/24 03:30:21;;;;;;;8.52;6.43;;;;;;;24.99;58.02;100114.41;5074195;28;20047;-75
2022/07/24 03:32:50;;;;;;;9.80;6.63;;;;;;;24.97;58.17;100111.88;5074461;28;20127;-74
2022/07/24 03:35:18;;;;;;;13.05;7.10;;;;;;;24.91;58.41;100115.38;5074350;28;20063;-74
2022/07/24 03:37:46;;;;;;;9.43;6.47;;;;;;;25.02;58.82;100119.53;5074280;28;20135;-74
2022/07/24 03:40:16;;;;;;;11.35;6.88;;;;;;;25.02;58.55;100114.94;5073953;28;20051;-74
2022/07/24 03:42:44;;;;;;;7.68;6.50;;;;;;;24.96;58.91;100107.47;5073977;28;20486;-74
2022/07/24 03:45:12;;;;;;;9.63;6.93;;;;;;;25.01;58.76;100101.44;5073996;28;20049;-74
2022/07/24 03:47:40;;;;;;;9.77;7.03;;;;;;;25.08;58.05;100114.16;5074180;28;20047;-73
2022/07/24 03:50:09;;;;;;;8.80;6.57;;;;;;;25.08;58.16;100108.69;5073653;28;20048;-74
2022/07/24 03:52:37;;;;;;;8.75;6.50;;;;;;;24.87;59.04;100111.31;5074026;28;20087;-73
2022/07/24 03:55:07;;;;;;;10.68;6.57;;;;;;;24.80;59.26;100110.38;5073645;28;20037;-74
2022/07/24 03:57:36;;;;;;;10.02;6.68;;;;;;;24.87;59.29;100108.59;5074049;28;20075;-73
2022/07/24 04:00:07;;;;;;;9.63;6.60;;;;;;;24.84;59.02;100114.44;5072378;28;20143;-74
2022/07/24 04:02:35;;;;;;;9.50;6.75;;;;;;;24.78;59.21;100101.53;5073801;28;20044;-73
2022/07/24 04:05:07;;;;;;;9.07;6.68;;;;;;;24.77;59.51;100114.31;5073512;28;20158;-74
2022/07/24 04:07:36;;;;;;;11.10;7.18;;;;;;;24.83;59.30;100104.56;5073692;28;20048;-74
2022/07/24 04:10:05;;;;;;;12.57;6.93;;;;;;;24.82;59.46;100114.63;5073219;28;20041;-75
2022/07/24 04:12:33;;;;;;;11.70;6.80;;;;;;;24.92;59.09;100113.50;5072583;28;20047;-74
2022/07/24 04:15:03;;;;;;;11.63;6.97;;;;;;;24.93;59.35;100110.56;5073360;28;20048;-75
2022/07/24 04:17:32;;;;;;;9.93;6.80;;;;;;;25.07;59.00;100114.34;5073586;28;20048;-74
2022/07/24 04:20:00;;;;;;;9.32;6.53;;;;;;;25.11;58.31;100119.25;5073490;28;20068;-74
2022/07/24 04:22:28;;;;;;;10.00;7.00;;;;;;;25.15;59.06;100127.91;5073813;28;20051;-74
2022/07/24 04:24:56;;;;;;;9.07;7.00;;;;;;;25.46;57.66;100144.03;5073326;28;20075;-75
2022/07/24 04:27:24;;;;;;;10.75;6.82;;;;;;;26.14;55.59;100136.41;5073571;28;20449;-74
2022/07/24 04:29:53;;;;;;;9.82;6.65;;;;;;;27.23;52.34;100131.38;5071883;28;20481;-74
2022/07/24 04:32:22;;;;;;;10.13;6.55;;;;;;;27.88;50.15;100141.72;5073344;28;20115;-75
2022/07/24 04:34:50;;;;;;;9.40;6.35;;;;;;;28.19;49.46;100156.78;5073117;28;20119;-75
2022/07/24 04:37:19;;;;;;;9.05;6.82;;;;;;;28.38;48.61;100155.13;5073182;28;20040;-74
2022/07/24 04:39:47;;;;;;;9.05;6.32;;;;;;;28.25;48.24;100142.19;5072444;28;20041;-77
2022/07/24 04:42:15;;;;;;;9.63;6.75;;;;;;;28.34;48.57;100151.94;5072954;28;20485;-78
2022/07/24 04:44:43;;;;;;;10.13;6.75;;;;;;;28.63;48.20;100153.41;5073203;28;20072;-78
2022/07/24 04:47:11;;;;;;;9.10;6.45;;;;;;;29.62;45.20;100150.44;5073151;28;20047;-78
2022/07/24 04:49:41;;;;;;;8.40;6.57;;;;;;;29.38;45.82;100161.31;5073259;28;20040;-74
2022/07/24 04:52:09;;;;;;;9.45;6.43;;;;;;;29.16;46.75;100163.53;5072862;28;20044;-75
2022/07/24 04:54:37;;;;;;;7.68;6.22;;;;;;;28.93;47.08;100177.69;5073357;28;20047;-74
2022/07/24 04:57:05;;;;;;;8.70;6.13;;;;;;;28.23;48.77;100174.47;5071496;28;20569;-75
2022/07/24 04:59:33;;;;;;;7.18;6.45;;;;;;;27.72;50.32;100172.25;5072956;28;20041;-72
2022/07/24 05:02:02;;;;;;;9.35;6.65;;;;;;;27.48;51.41;100172.75;5071333;28;20053;-74
2022/07/24 05:04:30;;;;;;;10.55;6.95;;;;;;;27.14;52.66;100182.72;5072987;28;20041;-74
2022/07/24 05:07:00;;;;;;;10.30;6.82;;;;;;;26.45;54.88;100183.44;5072490;28;20044;-75
2022/07/24 05:09:28;;;;;;;11.93;7.60;;;;;;;26.22;55.98;100197.25;5072821;28;20041;-74
2022/07/24 05:11:56;;;;;;;11.65;6.93;;;;;;;26.13;56.24;100201.16;5072776;28;20055;-81
2022/07/24 05:14:24;;;;;;;8.15;6.88;;;;;;;26.12;56.53;100198.63;5072629;28;20055;-74
2022/07/24 05:16:52;;;;;;;11.55;7.05;;;;;;;26.18;57.25;100201.44;5073063;28;20048;-72
2022/07/24 05:19:21;;;;;;;10.15;7.28;;;;;;;26.20;57.41;100202.06;5072978;28;20040;-73
2022/07/24 05:21:49;;;;;;;9.90;7.57;;;;;;;26.09;57.33;100207.22;5071670;28;20056;-73
2022/07/24 05:24:18;;;;;;;9.80;7.32;;;;;;;26.10;57.33;100212.50;5072650;28;20143;-74
2022/07/24 05:26:46;;;;;;;10.52;7.75;;;;;;;26.04;57.92;100206.94;5071155;28;20056;-74
2022/07/24 05:29:15;;;;;;;10.73;7.32;;;;;;;26.55;56.49;100213.19;5072743;28;20068;-74
2022/07/24 05:31:43;;;;;;;12.35;7.78;;;;;;;27.09;54.59;100223.50;5072964;28;20037;-73
2022/07/24 05:34:12;;;;;;;11.00;7.45;;;;;;;27.50;53.13;100214.47;5072650;28;20094;-72
2022/07/24 05:36:40;;;;;;;8.93;7.25;;;;;;;27.85;52.42;100223.53;5072709;28;20041;-71
2022/07/24 05:39:08;;;;;;;9.68;8.07;;;;;;;28.44;50.82;100222.84;5072448;28;20039;-73
2022/07/24 05:41:38;;;;;;;10.13;7.80;;;;;;;27.56;52.64;100230.09;5072436;28;20048;-72
2022/07/24 05:44:06;;;;;;;9.20;7.68;;;;;;;27.35;53.86;100220.94;5072631;28;20048;-73
2022/07/24 05:46:34;;;;;;;12.10;8.15;;;;;;;27.47;53.27;100217.63;5071607;28;20055;-75
2022/07/24 05:49:02;;;;;;;12.25;7.80;;;;;;;27.82;52.38;100230.28;5072439;28;20045;-76
2022/07/24 05:51:31;;;;;;;12.18;7.57;;;;;;;27.98;52.60;100234.53;5075773;28;20128;-77
2022/07/24 05:53:59;;;;;;;10.50;8.00;;;;;;;28.45;50.57;100232.75;5075910;28;20041;-78
2022/07/24 05:56:27;;;;;;;10.02;8.00;;;;;;;28.37;51.25;100238.44;5076521;28;20094;-77
2022/07/24 05:58:57;;;;;;;10.10;7.90;;;;;;;29.51;48.58;100230.84;5076316;28;20071;-75
2022/07/24 06:01:25;;;;;;;11.20;8.13;;;;;;;29.73;47.26;100227.81;5075034;28;20126;-75
2022/07/24 06:03:53;;;;;;;10.52;8.00;;;;;;;29.70;47.10;100234.56;5076427;28;20040;-74
2022/07/24 06:06:21;;;;;;;9.98;7.90;;;;;;;30.02;46.72;100227.25;5074377;28;20044;-75
2022/07/24 06:08:49;;;;;;;10.18;8.18;;;;;;;29.33;47.69;100225.13;5076068;28;20047;-74
2022/07/24 06:11:18;;;;;;;10.75;8.50;;;;;;;29.05;49.19;100241.91;5075716;28;20036;-74
2022/07/24 06:13:46;;;;;;;10.13;8.52;;;;;;;29.99;46.53;100237.81;5076079;28;20048;-74
2022/07/24 06:16:16;;;;;;;12.93;8.55;;;;;;;30.66;45.31;100237.25;5075554;28;20127;-75
2022/07/24 06:18:45;;;;;;;13.10;7.97;;;;;;;31.54;43.25;100230.69;5075920;28;20048;-74
2022/07/24 06:21:13;;;;;;;9.95;7.80;;;;;;;30.62;43.83;100254.41;5075477;28;20466;-77
2022/07/24 06:23:41;;;;;;;12.23;8.27;;;;;;;31.25;42.99;100244.16;5075807;28;20545;-74
2022/07/24 06:26:09;;;;;;;10.15;8.10;;;;;;;30.80;43.70;100248.16;5075254;28;20117;-78
2022/07/24 06:28:37;;;;;;;10.35;8.50;;;;;;;30.72;43.62;100250.13;5075699;28;20047;-74
2022/07/24 06:31:05;;;;;;;10.38;8.27;;;;;;;31.08;43.21;100232.03;5075242;28;20079;-73
2022/07/24 06:33:35;;;;;;;10.85;8.20;;;;;;;31.02;43.36;100250.28;5075383;28;20047;-74
2022/07/24 06:36:03;;;;;;;11.25;8.52;;;;;;;31.51;42.45;100233.94;5075368;28;20178;-73
2022/07/24 06:38:31;;;;;;;10.25;8.48;;;;;;;31.38;41.99;100239.59;5075491;28;20044;-74
2022/07/24 06:41:00;;;;;;;11.40;8.57;;;;;;;31.51;42.05;100244.94;5074124;28;20131;-74
2022/07/24 06:43:28;;;;;;;9.77;8.25;;;;;;;31.69;42.09;100250.47;5075186;28;20408;-74
2022/07/24 06:45:56;;;;;;;10.85;8.77;;;;;;;30.61;43.89;100253.56;5075184;28;20041;-75
2022/07/24 06:48:24;;;;;;;11.50;8.73;;;;;;;31.41;42.33;100252.91;5073612;28;20079;-74
2022/07/24 06:50:54;;;;;;;9.68;8.10;;;;;;;31.80;41.61;100248.88;5075040;28;20482;-74
2022/07/24 06:53:22;;;;;;;10.48;8.85;;;;;;;31.83;41.49;100245.66;5073866;28;20460;-77
2022/07/24 06:55:53;;;;;;;12.07;8.60;;;;;;;30.87;41.77;100248.94;5075138;28;20056;-75
2022/07/24 06:58:22;;;;;;;11.10;9.20;;;;;;;29.95;43.10;100247.59;5074856;28;20044;-79
2022/07/24 07:00:50;;;;;;;10.13;8.85;;;;;;;30.09;43.59;100255.56;5074628;28;20047;-71
2022/07/24 07:03:18;;;;;;;11.00;8.75;;;;;;;30.52;43.15;100254.91;5074523;28;20048;-70
2022/07/24 07:05:46;;;;;;;11.40;8.68;;;;;;;30.75;42.42;100260.69;5075103;28;20123;-69
2022/07/24 07:08:16;;;;;;;13.00;9.10;;;;;;;30.08;43.66;100256.63;5073462;28;20102;-71
2022/07/24 07:10:46;;;;;;;11.15;8.95;;;;;;;30.30;43.14;100256.31;5074721;28;20048;-74
2022/07/24 07:13:14;;;;;;;10.57;9.02;;;;;;;30.02;44.11;100260.25;5073081;28;20525;-72
2022/07/24 07:15:43;;;;;;;11.48;9.50;;;;;;;30.20;44.15;100262.28;5074878;28;20052;-72
2022/07/24 07:18:11;;;;;;;11.75;8.98;;;;;;;30.28;44.06;100266.69;5074589;28;20502;-72
2022/07/24 07:20:39;;;;;;;10.45;8.80;;;;;;;29.87;44.58;100263.28;5074738;28;20036;-70
2022/07/24 07:23:07;;;;;;;11.63;9.07;;;;;;;29.80;44.02;100267.94;5074269;28;20044;-71
2022/07/24 07:25:37;;;;;;;10.98;8.60;;;;;;;29.75;44.50;100264.19;5074421;28;20547;-71
2022/07/24 07:28:05;;;;;;;10.07;8.63;;;;;;;30.09;43.50;100263.81;5074037;28;20139;-73
2022/07/24 07:30:34;;;;;;;10.50;8.65;;;;;;;30.12;43.04;100257.91;5074507;28;20041;-72
2022/07/24 07:33:02;;;;;;;12.52;8.57;;;;;;;30.18;41.78;100265.25;5074339;28;20045;-72
2022/07/24 07:35:30;;;;;;;11.20;8.77;;;;;;;30.10;41.22;100268.25;5072968;28;20135;-70
2022/07/24 07:37:58;;;;;;;11.45;9.10;;;;;;;29.80;41.82;100270.69;5075566;28;20481;-70
2022/07/24 07:40:27;;;;;;;9.75;7.97;;;;;;;29.84;40.17;100268.38;5075763;28;20052;-70
2022/07/24 07:42:56;;;;;;;9.77;8.02;;;;;;;29.83;40.18;100267.53;5073688;28;20052;-69
2022/07/24 07:45:24;;;;;;;8.90;7.97;;;;;;;29.83;39.92;100272.19;5073952;28;20083;-72
2022/07/24 07:47:59;;;;;;;10.70;8.60;;;;;;;29.75;40.65;100273.25;5074194;28;20094;-70
2022/07/24 07:50:27;;;;;;;11.55;8.63;;;;;;;30.14;40.58;100266.78;5073454;28;20051;-68
2022/07/24 07:52:55;;;;;;;9.10;8.10;;;;;;;30.45;39.50;100265.94;5073867;28;20040;-67
2022/07/24 07:55:24;;;;;;;8.82;7.70;;;;;;;30.39;38.17;100263.22;5072312;28;20059;-67
2022/07/24 07:57:52;;;;;;;9.35;7.75;;;;;;;30.45;38.89;100267.88;5073982;28;20041;-68
2022/07/24 08:00:37;;;;;;;9.75;7.40;;;;;;;30.14;38.84;100269.53;5074045;28;20048;-69
2022/07/24 08:03:05;;;;;;;10.35;8.02;;;;;;;30.17;39.35;100260.81;5072292;28;20120;-68
2022/07/24 08:05:33;;;;;;;9.43;7.90;;;;;;;30.15;38.75;100265.72;5073836;28;20037;-66
2022/07/24 08:08:02;;;;;;;9.60;7.63;;;;;;;30.18;38.74;100269.91;5073473;28;20040;-67
2022/07/24 08:10:31;;;;;;;8.43;7.45;;;;;;;30.37;38.35;100260.72;5073225;28;20098;-69
2022/07/24 08:12:59;;;;;;;8.10;7.10;;;;;;;30.34;37.84;100274.06;5072334;28;20044;-69
2022/07/24 08:15:27;;;;;;;9.32;7.55;;;;;;;30.36;38.23;100269.19;5071861;28;20057;-71
2022/07/24 08:17:58;;;;;;;10.50;7.75;;;;;;;30.27;37.57;100265.84;5073396;28;20481;-68
2022/07/24 08:20:28;;;;;;;11.88;7.45;;;;;;;30.61;36.98;100263.75;5073302;28;20040;-71
2022/07/24 08:22:56;;;;;;;8.82;7.32;;;;;;;30.33;37.17;100275.97;5072433;28;20052;-67
2022/07/24 08:25:26;;;;;;;9.55;7.40;;;;;;;30.38;37.08;100276.16;5073621;28;20044;-68
2022/07/24 08:27:54;;;;;;;10.57;8.02;;;;;;;30.65;36.91;100249.31;5073197;28;20059;-68
2022/07/24 08:30:25;;;;;;;9.38;8.05;;;;;;;30.42;37.43;100263.66;5072982;28;20438;-69
2022/07/24 08:32:53;;;;;;;9.75;8.13;;;;;;;30.40;37.51;100278.66;5073427;28;20040;-68
2022/07/24 08:35:23;;;;;;;9.68;8.02;;;;;;;30.67;37.03;100288.47;5071709;28;20055;-68
2022/07/24 08:37:59;;;;;;;8.93;7.68;;;;;;;30.38;37.26;100281.66;5071908;28;20135;-67
2022/07/24 08:40:33;;;;;;;10.15;7.70;;;;;;;30.66;37.05;100277.69;5072894;28;20501;-67
2022/07/24 08:43:02;;;;;;;9.95;8.52;;;;;;;30.61;37.72;100281.09;5073334;28;20453;-68
2022/07/24 08:45:34;;;;;;;12.73;8.20;;;;;;;30.52;38.70;100276.94;5072914;28;20049;-68
2022/07/24 08:48:04;;;;;;;9.43;8.43;;;;;;;30.30;39.59;100281.06;5072079;28;20092;-69
2022/07/24 08:50:35;;;;;;;10.43;8.45;;;;;;;30.29;39.08;100293.97;5072838;28;20444;-72
2022/07/24 08:53:04;;;;;;;9.70;7.85;;;;;;;30.41;38.24;100283.16;5072848;28;20071;-71
2022/07/24 08:55:33;;;;;;;8.80;7.65;;;;;;;30.33;38.53;100288.91;5072891;28;20037;-71
2022/07/24 08:58:02;;;;;;;9.25;7.65;;;;;;;30.65;37.99;100287.88;5073033;28;20481;-70
2022/07/24 09:00:32;;;;;;;12.57;8.30;;;;;;;30.45;38.16;100287.13;5071536;28;20049;-70
2022/07/24 09:03:00;;;;;;;10.32;8.55;;;;;;;30.68;37.92;100281.06;5072933;28;20119;-69
2022/07/24 09:05:31;;;;;;;11.13;8.60;;;;;;;30.75;37.89;100290.97;5071254;28;20079;-71
2022/07/24 09:08:14;;;;;;;11.68;8.20;;;;;;;30.40;36.67;100306.19;5071608;28;20055;-69
2022/07/24 09:10:54;;;;;;;8.15;7.28;;;;;;;30.28;36.75;100291.44;5071666;28;20056;-70
2022/07/24 09:13:29;;;;;;;8.90;7.57;;;;;;;30.24;36.40;100287.47;5072749;28;20047;-70
2022/07/24 09:15:57;;;;;;;11.00;7.90;;;;;;;30.40;35.98;100304.31;5073073;28;20478;-69
2022/07/24 09:18:28;;;;;;;9.82;6.97;;;;;;;30.19;35.99;100297.19;5071374;28;20076;-68
2022/07/24 09:20:58;;;;;;;7.63;6.65;;;;;;;30.15;35.42;100298.72;5071646;28;20063;-69
2022/07/24 09:23:28;;;;;;;8.50;6.90;;;;;;;30.30;35.13;100297.56;5071180;28;20061;-68
2022/07/24 09:25:56;;;;;;;8.93;7.07;;;;;;;30.49;34.50;100288.34;5074977;28;20040;-69
2022/07/24 09:28:26;;;;;;;8.32;6.63;;;;;;;30.54;34.33;100291.31;5075109;28;20040;-69
2022/07/24 09:31:01;;;;;;;9.98;6.70;;;;;;;30.74;34.50;100294.78;5075148;28;20055;-69
2022/07/24 09:33:36;;;;;;;9.85;7.30;;;;;;;30.88;34.16;100297.44;5076371;28;20048;-69
2022/07/24 09:36:13;;;;;;;7.90;6.93;;;;;;;31.04;33.86;100294.97;5076625;28;20044;-69
2022/07/24 09:38:49;;;;;;;10.48;6.90;;;;;;;31.04;33.72;100296.88;5075154;28;20053;-69
2022/07/24 09:41:22;;;;;;;8.07;6.32;;;;;;;30.97;33.95;100302.44;5076113;28;20045;-69
2022/07/24 09:44:00;;;;;;;9.80;7.35;;;;;;;30.64;34.98;100297.19;5076726;28;20037;-69
2022/07/24 09:46:29;;;;;;;8.90;7.00;;;;;;;31.07;34.78;100304.69;5076125;28;20054;-69
2022/07/24 09:49:00;;;;;;;9.20;7.82;;;;;;;31.22;34.02;100301.63;5076228;28;20119;-68
2022/07/24 09:51:30;;;;;;;10.70;7.22;;;;;;;31.43;33.84;100294.84;5076348;28;20474;-69
2022/07/24 09:54:00;;;;;;;9.20;7.47;;;;;;;31.67;33.92;100291.22;5076436;28;20037;-69
2022/07/24 09:56:29;;;;;;;9.32;7.55;;;;;;;31.30;33.93;100306.88;5076049;28;20389;-69
2022/07/24 09:58:59;;;;;;;8.70;7.80;;;;;;;31.50;34.33;100306.66;5075020;28;20059;-68
2022/07/24 10:01:28;;;;;;;8.07;7.28;;;;;;;31.55;34.81;100293.03;5075947;28;20132;-68
2022/07/24 10:03:58;;;;;;;9.18;7.63;;;;;;;31.29;35.06;100300.50;5074657;28;20048;-68
2022/07/24 10:06:27;;;;;;;8.40;7.53;;;;;;;30.88;35.37;100302.94;5075526;28;20406;-73
2022/07/24 10:08:57;;;;;;;8.65;7.32;;;;;;;30.70;35.52;100300.97;5074514;28;20135;-69
2022/07/24 10:11:26;;;;;;;8.55;7.60;;;;;;;31.08;34.75;100297.25;5075889;28;20042;-69
2022/07/24 10:13:55;;;;;;;10.18;7.65;;;;;;;31.06;34.71;100283.72;5074419;28;20131;-68
2022/07/24 10:16:28;;;;;;;9.23;7.15;;;;;;;31.05;34.66;100284.78;5076633;28;20535;-70
2022/07/24 10:19:01;;;;;;;9.48;7.10;;;;;;;30.87;34.99;100298.50;5070422;28;20063;-70
2022/07/24 10:21:32;;;;;;;10.07;7.00;;;;;;;31.17;34.54;100302.25;5074696;28;20080;-80
2022/07/24 10:24:34;;;;;;;9.25;7.28;;;;;;;31.37;33.76;100288.34;5064599;28;20144;-77
2022/07/24 10:27:06;;;;;;;8.57;7.00;;;;;;;30.99;33.63;100296.72;5073111;28;20084;-75
2022/07/24 10:29:35;;;;;;;9.55;7.43;;;;;;;31.13;33.94;100301.03;5075290;28;20060;-73
2022/07/24 10:32:04;;;;;;;8.00;6.70;;;;;;;31.27;33.46;100285.28;5055774;28;20552;-71
2022/07/24 10:34:39;;;;;;;9.73;6.90;;;;;;;31.16;33.10;100306.09;5053785;28;20552;-72
2022/07/24 10:37:12;;;;;;;8.98;6.50;;;;;;;30.96;32.96;100311.78;5053341;28;20048;-71
2022/07/24 10:39:48;;;;;;;10.93;6.80;;;;;;;30.95;32.55;100309.25;5055432;28;20049;-72
2022/07/24 10:42:17;;;;;;;8.70;6.82;;;;;;;31.09;31.96;100305.34;5055235;28;20075;-71
2022/07/24 10:45:06;;;;;;;9.18;6.70;;;;;;;31.18;32.26;100303.97;5057548;28;20050;-71
2022/07/24 10:47:34;;;;;;;6.75;6.05;;;;;;;31.22;32.05;100294.22;5058574;28;20053;-72
2022/07/24 10:50:04;;;;;;;7.82;6.47;;;;;;;31.17;32.00;100296.75;5072846;28;20040;-72
2022/07/24 10:52:34;;;;;;;8.70;6.50;;;;;;;31.13;31.80;100301.03;5074924;28;20401;-73
2022/07/24 10:55:30;;;;;;;8.18;6.25;;;;;;;31.03;31.98;100300.72;5075345;28;20486;-79
2022/07/24 10:58:13;;;;;;;8.30;5.95;;;;;;;30.93;31.33;100301.22;5074871;28;20036;-71
2022/07/24 11:00:46;;;;;;;7.43;6.53;;;;;;;30.80;31.61;100301.31;5074696;28;20072;-71
2022/07/24 11:03:22;;;;;;;7.60;6.07;;;;;;;31.02;30.94;100305.38;5074771;28;20044;-74
2022/07/24 11:06:05;;;;;;;9.85;6.30;;;;;;;30.87;31.59;100293.84;5074739;28;20466;-73
2022/07/24 11:08:36;;;;;;;9.68;6.28;;;;;;;30.75;32.05;100293.72;5075470;28;20048;-77
2022/07/24 11:11:10;;;;;;;8.73;6.60;;;;;;;30.56;32.59;100302.94;5074829;28;20068;-76
2022/07/24 11:13:51;;;;;;;7.57;6.35;;;;;;;30.71;31.26;100292.50;5075168;28;20041;-75
2022/07/24 11:16:22;;;;;;;10.30;6.60;;;;;;;30.75;31.14;100288.22;5074494;28;20071;-75
2022/07/24 11:19:27;;;;;;;9.25;6.53;;;;;;;31.07;30.91;100285.41;5074168;28;20040;-80
2022/07/24 11:22:10;;;;;;;8.13;6.10;;;;;;;30.92;31.24;100293.19;5074019;28;20036;-75
2022/07/24 11:25:09;;;;;;;7.53;6.18;;;;;;;31.01;30.16;100275.31;5072395;28;20539;-70
2022/07/24 11:27:59;;;;;;;7.07;5.60;;;;;;;30.84;30.38;100274.19;5066111;28;20453;-71
2022/07/24 11:30:31;;;;;;;7.28;6.18;;;;;;;30.69;30.83;100283.63;5070157;28;20052;-71
2022/07/24 11:33:01;;;;;;;6.55;5.85;;;;;;;30.93;30.88;100279.19;5070229;28;20037;-72
2022/07/24 11:35:32;;;;;;;7.65;6.10;;;;;;;30.86;31.45;100272.88;5053396;28;20057;-71